createdAt,value
2019-02-26T00:02:14.861Z,3.60
2019-02-26T00:04:40.516Z,3.60
2019-02-26T00:07:08.838Z,3.50
2019-02-26T00:09:35.460Z,3.50
2019-02-26T00:12:01.812Z,3.50
2019-02-26T00:14:30.248Z,3.50
2019-02-26T00:16:56.160Z,3.50
2019-02-26T00:19:22.358Z,3.50
2019-02-26T00:21:50.130Z,3.40
2019-02-26T00:24:16.890Z,3.40
2019-02-26T00:26:45.032Z,3.20
2019-02-26T00:29:11.251Z,3.20
2019-02-26T00:31:37.358Z,3.10
2019-02-26T00:34:03.626Z,3.10
2019-02-26T00:36:31.441Z,3.10
2019-02-26T00:38:58.452Z,3.10
2019-02-26T00:41:26.806Z,3.10
2019-02-26T00:43:57.623Z,3.10
2019-02-26T00:46:24.261Z,3.10
2019-02-26T00:48:51.827Z,3.00
2019-02-26T00:51:20.051Z,3.00
2019-02-26T00:53:48.839Z,2.90
2019-02-26T00:56:14.285Z,3.00
2019-02-26T00:58:41.530Z,2.90
2019-02-26T01:01:12.144Z,2.90
2019-02-26T01:03:36.775Z,3.00
2019-02-26T01:06:04.236Z,2.80
2019-02-26T01:08:31.111Z,2.80
2019-02-26T01:10:59.131Z,2.80
2019-02-26T01:13:27.635Z,2.80
2019-02-26T01:15:53.249Z,2.70
2019-02-26T01:18:22.402Z,2.70
2019-02-26T01:20:52.280Z,2.60
2019-02-26T01:23:18.727Z,2.60
2019-02-26T01:25:44.547Z,2.60
2019-02-26T01:28:14.148Z,2.60
2019-02-26T01:30:38.841Z,2.50
2019-02-26T01:33:05.565Z,2.50
2019-02-26T01:35:33.150Z,2.50
2019-02-26T01:38:01.078Z,2.70
2019-02-26T01:40:27.302Z,2.50
2019-02-26T01:42:57.388Z,2.40
2019-02-26T01:45:22.352Z,2.40
2019-02-26T01:47:50.910Z,2.30
2019-02-26T01:50:17.559Z,2.30
2019-02-26T01:52:43.770Z,2.20
2019-02-26T01:55:10.800Z,2.10
2019-02-26T01:57:36.995Z,2.10
2019-02-26T02:00:09.699Z,2.20
2019-02-26T02:02:35.799Z,2.10
2019-02-26T02:05:04.619Z,2.10
2019-02-26T02:07:30.631Z,2.10
2019-02-26T02:09:58.178Z,2.10
2019-02-26T02:12:27.427Z,2.10
2019-02-26T02:14:52.935Z,2.20
2019-02-26T02:17:21.112Z,2.00
2019-02-26T02:19:47.193Z,2.00
2019-02-26T02:22:14.641Z,1.90
2019-02-26T02:24:41.842Z,1.90
2019-02-26T02:27:09.495Z,1.80
2019-02-26T02:29:35.602Z,1.70
2019-02-26T02:32:04.450Z,1.70
2019-02-26T02:34:32.658Z,1.70
2019-02-26T02:36:57.759Z,1.70
2019-02-26T02:39:26.325Z,1.70
2019-02-26T02:41:54.884Z,1.70
2019-02-26T02:44:21.054Z,1.70
2019-02-26T02:46:48.115Z,1.80
2019-02-26T02:49:15.755Z,1.70
2019-02-26T02:51:42.281Z,1.70
2019-02-26T02:54:08.387Z,1.80
2019-02-26T02:56:36.992Z,1.80
2019-02-26T02:59:03.473Z,1.60
2019-02-26T03:01:30.847Z,1.60
2019-02-26T03:04:00.550Z,1.70
2019-02-26T03:06:28.234Z,1.60
2019-02-26T03:08:53.540Z,1.60
2019-02-26T03:11:19.763Z,1.60
2019-02-26T03:13:48.346Z,1.60
2019-02-26T03:16:15.789Z,1.60
2019-02-26T03:18:41.913Z,1.50
2019-02-26T03:21:08.119Z,1.50
2019-02-26T03:23:37.151Z,1.40
2019-02-26T03:26:02.343Z,1.40
2019-02-26T03:28:28.457Z,1.40
2019-02-26T03:30:54.576Z,1.40
2019-02-26T03:33:20.709Z,1.40
2019-02-26T03:35:46.899Z,1.40
2019-02-26T03:38:15.029Z,1.40
2019-02-26T03:40:41.144Z,1.40
2019-02-26T03:43:08.367Z,1.40
2019-02-26T03:45:35.519Z,1.30
2019-02-26T03:48:01.710Z,1.40
2019-02-26T03:50:27.841Z,1.40
2019-02-26T03:52:53.946Z,1.40
2019-02-26T03:55:20.191Z,1.50
2019-02-26T03:57:54.547Z,1.30
2019-02-26T04:00:20.301Z,1.50
2019-02-26T04:02:49.096Z,1.40
2019-02-26T04:05:14.954Z,1.40
2019-02-26T04:07:41.469Z,1.30
2019-02-26T04:10:08.895Z,1.40
2019-02-26T04:12:39.176Z,1.30
2019-02-26T04:15:09.819Z,1.20
2019-02-26T04:17:36.868Z,1.20
2019-02-26T04:20:06.396Z,1.20
2019-02-26T04:22:32.974Z,1.20
2019-02-26T04:25:09.392Z,1.10
2019-02-26T04:27:41.371Z,1.10
2019-02-26T04:30:47.727Z,1.10
2019-02-26T04:33:53.750Z,1.10
2019-02-26T04:36:26.424Z,1.10
2019-02-26T04:38:59.149Z,1.00
2019-02-26T04:41:27.184Z,1.00
2019-02-26T04:44:13.630Z,1.00
2019-02-26T04:46:46.390Z,0.90
2019-02-26T04:49:12.497Z,0.90
2019-02-26T04:51:41.541Z,0.90
2019-02-26T04:54:06.754Z,0.90
2019-02-26T04:56:37.053Z,0.90
2019-02-26T04:59:03.573Z,0.90
2019-02-26T05:01:30.966Z,1.00
2019-02-26T05:03:57.568Z,0.80
2019-02-26T05:06:23.862Z,0.70
2019-02-26T05:08:50.088Z,0.70
2019-02-26T05:11:30.937Z,0.60
2019-02-26T05:13:44.227Z,0.60
2019-02-26T05:16:13.159Z,0.60
2019-02-26T05:18:39.286Z,0.60
2019-02-26T05:21:08.349Z,0.60
2019-02-26T05:23:33.701Z,0.50
2019-02-26T05:26:05.567Z,0.70
2019-02-26T05:28:35.672Z,0.60
2019-02-26T05:31:00.248Z,0.50
2019-02-26T05:33:27.679Z,0.50
2019-02-26T05:35:54.417Z,0.50
2019-02-26T05:38:20.725Z,0.60
2019-02-26T05:40:48.203Z,0.40
2019-02-26T05:43:14.868Z,0.40
2019-02-26T05:45:41.021Z,0.40
2019-02-26T05:48:07.159Z,0.30
2019-02-26T05:50:35.445Z,0.30
2019-02-26T05:53:04.614Z,0.20
2019-02-26T05:55:29.583Z,0.20
2019-02-26T05:57:55.806Z,0.20
2019-02-26T06:00:25.394Z,0.20
2019-02-26T06:02:51.006Z,0.20
2019-02-26T06:05:20.269Z,0.20
2019-02-26T06:07:45.369Z,0.20
2019-02-26T06:10:11.792Z,0.20
2019-02-26T06:12:40.736Z,0.20
2019-02-26T06:15:07.994Z,0.20
2019-02-26T06:17:35.190Z,0.20
2019-02-26T06:20:08.053Z,0.20
2019-02-26T06:22:34.658Z,0.30
2019-02-26T06:25:06.952Z,0.20
2019-02-26T06:27:28.815Z,0.20
2019-02-26T06:29:57.151Z,0.20
2019-02-26T06:32:27.400Z,0.20
2019-02-26T06:34:51.207Z,0.40
2019-02-26T06:37:23.516Z,0.10
2019-02-26T06:39:52.646Z,0.20
2019-02-26T06:42:18.165Z,0.20
2019-02-26T06:44:46.335Z,0.30
2019-02-26T06:47:12.382Z,0.40
2019-02-26T06:49:38.481Z,0.50
2019-02-26T06:52:06.081Z,0.60
2019-02-26T06:54:32.928Z,0.80
2019-02-26T06:56:59.169Z,1.00
2019-02-26T06:59:33.863Z,1.40
2019-02-26T07:01:58.847Z,1.40
2019-02-26T07:04:29.394Z,1.60
2019-02-26T07:06:55.202Z,1.70
2019-02-26T07:09:21.371Z,1.90
2019-02-26T07:11:47.527Z,2.00
2019-02-26T07:14:13.750Z,2.10
2019-02-26T07:16:40.515Z,2.20
2019-02-26T07:19:08.943Z,2.40
2019-02-26T07:21:34.942Z,2.60
2019-02-26T07:24:01.642Z,2.70
2019-02-26T07:26:29.307Z,2.90
2019-02-26T07:28:55.545Z,3.10
2019-02-26T07:31:21.746Z,3.40
2019-02-26T07:33:48.102Z,3.70
2019-02-26T07:36:16.069Z,4.10
2019-02-26T07:38:46.032Z,4.40
2019-02-26T07:41:10.626Z,4.80
2019-02-26T07:43:41.073Z,5.20
2019-02-26T07:46:04.928Z,5.70
2019-02-26T07:48:31.721Z,6.10
2019-02-26T07:51:01.314Z,6.50
2019-02-26T07:53:27.560Z,7.00
2019-02-26T07:55:53.647Z,7.40
2019-02-26T07:58:19.803Z,7.80
2019-02-26T08:00:49.580Z,8.10
2019-02-26T08:03:14.039Z,8.50
2019-02-26T08:05:40.155Z,9.00
2019-02-26T08:08:06.431Z,9.60
2019-02-26T08:10:35.139Z,9.90
2019-02-26T08:13:02.939Z,10.50
2019-02-26T08:15:30.300Z,11.20
2019-02-26T08:17:58.456Z,11.80
2019-02-26T08:20:25.108Z,12.30
2019-02-26T08:22:52.224Z,12.80
2019-02-26T08:25:19.462Z,13.40
2019-02-26T08:27:45.722Z,14.10
2019-02-26T08:30:14.816Z,14.60
2019-02-26T08:32:42.205Z,14.90
2019-02-26T08:35:09.134Z,15.20
2019-02-26T08:37:35.373Z,15.60
2019-02-26T08:40:01.859Z,15.90
2019-02-26T08:42:28.099Z,16.30
2019-02-26T08:44:55.909Z,16.60
2019-02-26T08:47:23.500Z,17.10
2019-02-26T08:49:49.811Z,17.30
2019-02-26T08:52:17.517Z,17.70
2019-02-26T08:54:44.109Z,18.10
2019-02-26T08:57:11.922Z,18.30
2019-02-26T08:59:38.255Z,18.50
2019-02-26T09:02:04.402Z,18.70
2019-02-26T09:04:30.531Z,19.10
2019-02-26T09:06:57.575Z,18.80
2019-02-26T09:09:25.937Z,19.20
2019-02-26T09:11:53.369Z,19.40
2019-02-26T09:14:20.855Z,19.50
2019-02-26T09:16:49.806Z,19.80
2019-02-26T09:19:15.147Z,20.00
2019-02-26T09:21:42.595Z,20.20
2019-02-26T09:24:09.457Z,20.30
2019-02-26T09:26:35.680Z,20.80
2019-02-26T09:29:01.957Z,20.90
2019-02-26T09:31:28.176Z,21.00
2019-02-26T09:33:54.320Z,21.20
2019-02-26T09:36:23.173Z,21.80
2019-02-26T09:38:49.651Z,22.00
2019-02-26T09:41:17.058Z,22.00
2019-02-26T09:43:45.929Z,22.50
2019-02-26T09:46:16.216Z,22.70
2019-02-26T09:48:42.911Z,22.70
2019-02-26T09:51:09.346Z,23.10
2019-02-26T09:53:37.059Z,23.10
2019-02-26T09:56:03.439Z,23.00
2019-02-26T09:58:29.674Z,23.00
2019-02-26T10:00:55.884Z,23.00
2019-02-26T10:03:22.128Z,23.10
2019-02-26T10:05:50.259Z,23.50
2019-02-26T10:08:17.285Z,23.70
2019-02-26T10:10:44.333Z,24.10
2019-02-26T10:13:10.491Z,24.10
2019-02-26T10:15:39.291Z,23.90
2019-02-26T10:18:06.798Z,24.10
2019-02-26T10:20:32.976Z,23.80
2019-02-26T10:23:02.763Z,23.60
2019-02-26T10:25:29.358Z,23.60
2019-02-26T10:27:55.409Z,23.90
2019-02-26T10:30:21.826Z,24.10
2019-02-26T10:32:48.058Z,24.50
2019-02-26T10:35:25.569Z,24.60
2019-02-26T10:37:52.959Z,24.50
2019-02-26T10:40:19.568Z,24.90
2019-02-26T10:42:46.242Z,24.90
2019-02-26T10:45:15.555Z,24.80
2019-02-26T10:47:41.768Z,25.00
2019-02-26T10:50:16.306Z,25.00
2019-02-26T10:52:41.938Z,25.10
2019-02-26T10:55:12.733Z,25.50
2019-02-26T10:57:38.483Z,25.50
2019-02-26T11:00:26.003Z,25.60
2019-02-26T11:02:54.034Z,25.60
2019-02-26T11:05:25.676Z,26.10
2019-02-26T11:07:48.376Z,26.20
2019-02-26T11:10:17.539Z,25.80
2019-02-26T11:12:43.181Z,25.60
2019-02-26T11:15:13.820Z,25.90
2019-02-26T11:17:40.177Z,24.90
2019-02-26T11:20:11.761Z,25.30
2019-02-26T11:22:41.641Z,25.40
2019-02-26T11:25:08.620Z,25.70
2019-02-26T11:27:35.792Z,25.30
2019-02-26T11:30:06.515Z,25.70
2019-02-26T11:32:37.339Z,26.30
2019-02-26T11:35:02.342Z,27.00
2019-02-26T11:37:29.538Z,27.10
2019-02-26T11:39:57.797Z,27.80
2019-02-26T11:42:26.188Z,28.30
2019-02-26T11:44:53.095Z,28.70
2019-02-26T11:47:20.627Z,28.80
2019-02-26T11:49:46.864Z,29.10
2019-02-26T11:52:13.003Z,29.30
2019-02-26T11:54:40.218Z,29.50
2019-02-26T11:57:10.133Z,30.10
2019-02-26T11:59:35.670Z,30.30
2019-02-26T12:02:04.439Z,30.40
2019-02-26T12:04:31.671Z,30.40
2019-02-26T12:06:58.510Z,30.30
2019-02-26T12:09:25.943Z,30.70
2019-02-26T12:11:52.195Z,31.20
2019-02-26T12:14:19.490Z,31.20
2019-02-26T12:16:46.439Z,31.40
2019-02-26T12:19:12.561Z,31.50
2019-02-26T12:21:38.769Z,31.60
2019-02-26T12:24:06.614Z,31.80
2019-02-26T12:26:32.928Z,31.50
2019-02-26T12:28:59.669Z,31.30
2019-02-26T12:31:28.427Z,30.70
2019-02-26T12:33:55.447Z,30.70
2019-02-26T12:36:23.588Z,30.30
2019-02-26T12:42:02.616Z,31.00
2019-02-26T12:44:39.456Z,30.50
2019-02-26T12:47:30.141Z,30.50
2019-02-26T12:53:35.702Z,30.10
2019-02-26T12:56:02.600Z,30.10
2019-02-26T12:58:31.521Z,29.70
2019-02-26T13:00:58.087Z,29.40
2019-02-26T13:03:24.260Z,30.00
2019-02-26T13:06:06.046Z,30.00
2019-02-26T13:08:33.424Z,30.00
2019-02-26T13:11:02.336Z,29.60
2019-02-26T13:13:28.677Z,29.60
2019-02-26T13:15:55.027Z,29.50
2019-02-26T13:18:21.421Z,29.60
2019-02-26T13:20:52.155Z,29.60
2019-02-26T13:23:45.524Z,30.00
2019-02-26T13:26:22.988Z,30.20
2019-02-26T13:29:35.958Z,30.30
2019-02-26T13:31:42.574Z,30.50
2019-02-26T13:37:26.354Z,30.30
2019-02-26T13:40:38.177Z,30.70
2019-02-26T13:45:58.817Z,31.10
2019-02-26T13:51:22.629Z,30.40
2019-02-26T13:53:48.882Z,30.30
2019-02-26T13:56:15.258Z,30.30
2019-02-26T13:58:41.640Z,30.20
2019-02-26T14:01:07.886Z,30.60
2019-02-26T14:03:34.138Z,30.50
2019-02-26T14:06:00.270Z,30.20
2019-02-26T14:08:26.410Z,30.10
2019-02-26T14:10:54.480Z,30.20
2019-02-26T14:13:21.043Z,30.70
2019-02-26T14:15:48.249Z,30.80
2019-02-26T14:21:17.515Z,31.20
2019-02-26T14:24:00.936Z,31.50
2019-02-26T14:32:32.701Z,31.20
2019-02-26T14:35:01.507Z,30.90
2019-02-26T14:37:27.844Z,30.20
2019-02-26T14:39:54.423Z,30.00
2019-02-26T14:42:21.664Z,30.00
2019-02-26T14:44:48.115Z,30.50
2019-02-26T14:47:30.106Z,30.70
2019-02-26T14:49:56.848Z,31.20
2019-02-26T14:52:37.211Z,31.50
2019-02-26T14:55:18.249Z,31.70
2019-02-26T15:42:56.178Z,26.90
2019-02-26T15:45:52.025Z,26.50
2019-02-26T15:48:14.448Z,26.20
2019-02-26T15:50:40.649Z,25.70
2019-02-26T15:53:07.366Z,25.40
2019-02-26T15:55:33.608Z,25.40
2019-02-26T15:58:03.073Z,25.30
2019-02-26T16:00:28.303Z,25.10
2019-02-26T16:02:59.061Z,25.00
2019-02-26T16:05:25.428Z,24.70
2019-02-26T16:07:51.668Z,24.20
2019-02-26T16:10:19.456Z,23.80
2019-02-26T16:12:46.415Z,23.70
2019-02-26T16:15:14.099Z,23.70
2019-02-26T16:17:40.271Z,23.40
2019-02-26T16:20:16.164Z,23.10
2019-02-26T16:22:42.702Z,22.70
2019-02-26T16:25:09.018Z,22.30
2019-02-26T16:27:37.653Z,21.90
2019-02-26T16:30:12.975Z,21.50
2019-02-26T16:32:39.586Z,21.20
2019-02-26T16:35:06.758Z,20.50
2019-02-26T16:37:33.008Z,19.80
2019-02-26T17:39:08.225Z,12.50
2019-02-26T18:16:16.755Z,10.90
2019-02-26T18:18:43.003Z,10.70
2019-02-26T18:21:09.123Z,10.60
2019-02-26T18:23:37.573Z,10.50
2019-02-26T18:26:03.311Z,10.40
2019-02-26T18:28:29.800Z,10.40
2019-02-26T18:30:56.020Z,10.30
2019-02-26T18:33:22.191Z,10.20
2019-02-26T18:35:48.498Z,10.20
2019-02-26T18:38:14.744Z,10.00
2019-02-26T18:40:41.198Z,10.00
2019-02-26T18:43:07.526Z,9.80
2019-02-26T18:45:33.931Z,9.70
2019-02-26T18:48:00.130Z,9.60
2019-02-26T18:50:28.532Z,9.50
2019-02-26T18:52:54.915Z,9.50
2019-02-26T18:55:21.170Z,9.40
2019-02-26T18:57:47.422Z,9.30
2019-02-26T19:00:17.040Z,9.20
2019-02-26T19:02:43.428Z,9.10
2019-02-26T19:05:11.822Z,8.90
2019-02-26T19:07:38.151Z,8.80
2019-02-26T19:10:17.472Z,8.70
2019-02-26T19:12:42.208Z,8.70
2019-02-26T19:15:14.800Z,8.50
2019-02-26T19:17:43.259Z,8.40
2019-02-26T19:20:12.736Z,8.30
2019-02-26T19:22:40.412Z,8.30
2019-02-26T19:25:09.152Z,8.20
2019-02-26T19:27:35.100Z,8.20
2019-02-26T19:30:04.127Z,8.20
2019-02-26T19:32:29.627Z,8.10
2019-02-26T19:34:55.757Z,8.10
2019-02-26T19:37:22.488Z,8.10
2019-02-26T19:39:48.719Z,8.00
2019-02-26T19:42:17.394Z,8.00
2019-02-26T19:44:43.754Z,7.90
2019-02-26T19:47:10.001Z,7.90
2019-02-26T19:49:39.391Z,7.80
2019-02-26T19:52:06.383Z,7.70
2019-02-26T19:54:32.510Z,7.70
2019-02-26T19:56:58.970Z,7.50
2019-02-26T19:59:26.949Z,7.50
2019-02-26T20:01:53.170Z,7.40
2019-02-26T20:04:19.283Z,7.40
2019-02-26T20:06:45.587Z,7.30
2019-02-26T20:09:11.999Z,7.20
2019-02-26T20:11:38.213Z,7.10
2019-02-26T20:14:04.999Z,7.10
2019-02-26T20:16:31.303Z,7.00
2019-02-26T20:18:59.074Z,6.90
2019-02-26T20:21:25.620Z,6.90
2019-02-26T20:23:53.486Z,6.80
2019-02-26T20:26:19.890Z,6.70
2019-02-26T20:28:46.133Z,6.60
2019-02-26T20:31:12.450Z,6.50
2019-02-26T20:33:38.708Z,6.30
2019-02-26T20:36:04.953Z,6.20
2019-02-26T20:38:35.039Z,6.20
2019-02-26T20:40:59.245Z,6.10
2019-02-26T20:43:25.475Z,6.00
2019-02-26T20:45:51.826Z,5.90
2019-02-26T20:48:18.038Z,5.70
2019-02-26T20:50:44.187Z,5.70
2019-02-26T20:53:10.459Z,5.60
2019-02-26T20:55:36.736Z,5.70
2019-02-26T20:58:02.957Z,5.60
2019-02-26T21:00:29.191Z,5.60
2019-02-26T21:02:55.323Z,5.50
2019-02-26T21:05:21.508Z,5.40
2019-02-26T21:07:49.449Z,5.40
2019-02-26T21:10:19.205Z,5.40
2019-02-26T21:12:45.428Z,5.30
2019-02-26T21:15:35.107Z,5.30
2019-02-26T21:18:01.237Z,5.20
2019-02-26T21:20:27.391Z,5.10
2019-02-26T21:22:54.863Z,5.10
2019-02-26T21:25:21.722Z,5.00
2019-02-26T21:27:47.918Z,4.80
2019-02-26T21:30:21.604Z,4.70
2019-02-26T21:32:48.025Z,4.60
2019-02-26T21:35:14.354Z,4.50
2019-02-26T21:37:40.494Z,4.50
2019-02-26T21:40:16.182Z,4.40
2019-02-26T21:42:42.384Z,4.30
2019-02-26T21:45:15.948Z,4.30
2019-02-26T21:47:42.460Z,4.30
2019-02-26T21:50:10.602Z,4.30
2019-02-26T21:52:36.817Z,4.30
2019-02-26T21:55:03.855Z,4.20
2019-02-26T21:57:29.967Z,4.20
2019-02-26T21:59:56.102Z,4.20
2019-02-26T22:02:22.212Z,4.20
2019-02-26T22:04:48.335Z,4.20
2019-02-26T22:07:16.770Z,4.10
2019-02-26T22:09:46.363Z,4.10
2019-02-26T22:12:12.651Z,4.10
2019-02-26T22:14:38.774Z,4.10
2019-02-26T22:17:04.999Z,4.10
2019-02-26T22:19:31.236Z,4.10
2019-02-26T22:21:57.421Z,4.10
2019-02-26T22:24:23.622Z,4.00
2019-02-26T22:26:49.847Z,4.00
2019-02-26T22:29:15.996Z,3.90
2019-02-26T22:31:42.338Z,3.90
2019-02-26T22:34:08.548Z,3.80
2019-02-26T22:36:34.798Z,3.70
2019-02-26T22:39:03.677Z,3.60
2019-02-26T22:41:29.793Z,3.60
2019-02-26T22:43:58.667Z,3.50
2019-02-26T22:46:24.883Z,3.50
2019-02-26T22:48:51.032Z,3.40
2019-02-26T22:51:18.562Z,3.40
2019-02-26T22:53:44.875Z,3.40
2019-02-26T22:56:11.000Z,3.40
2019-02-26T22:58:39.052Z,3.30
2019-02-26T23:01:13.749Z,3.30
2019-02-26T23:03:45.723Z,3.30
2019-02-26T23:06:11.697Z,3.30
2019-02-26T23:08:38.111Z,3.30
2019-02-26T23:11:04.535Z,3.20
2019-02-26T23:13:31.885Z,3.10
2019-02-26T23:15:59.425Z,3.10
2019-02-26T23:18:25.773Z,3.10
2019-02-26T23:20:52.184Z,3.10
2019-02-26T23:23:21.652Z,2.90
2019-02-26T23:25:46.643Z,2.90
2019-02-26T23:28:14.775Z,2.80
2019-02-26T23:30:43.948Z,2.90
2019-02-26T23:33:10.143Z,2.70
2019-02-26T23:35:36.615Z,2.60
2019-02-26T23:38:03.016Z,2.60
2019-02-26T23:40:29.239Z,2.60
2019-02-26T23:42:55.825Z,2.40
2019-02-26T23:45:24.218Z,2.40
2019-02-26T23:47:50.008Z,2.40
2019-02-26T23:50:18.290Z,2.30
2019-02-26T23:52:44.399Z,2.30
2019-02-26T23:55:13.069Z,2.20
2019-02-26T23:57:39.909Z,2.20
